createdAt,value
2022-10-02T00:00:26.216Z,99.99
2022-10-02T00:01:26.282Z,99.99
2022-10-02T00:02:26.183Z,99.99
2022-10-02T00:03:26.200Z,99.99
2022-10-02T00:04:26.187Z,99.99
2022-10-02T00:05:26.215Z,99.99
2022-10-02T00:06:26.142Z,99.99
2022-10-02T00:07:26.148Z,99.99
2022-10-02T00:08:26.131Z,99.99
2022-10-02T00:09:26.121Z,99.99
2022-10-02T00:10:26.111Z,99.99
2022-10-02T00:11:26.137Z,99.99
2022-10-02T00:12:26.089Z,99.99
2022-10-02T00:13:26.092Z,99.99
2022-10-02T00:14:26.088Z,99.99
2022-10-02T00:15:26.071Z,99.99
2022-10-02T00:16:26.083Z,99.99
2022-10-02T00:17:26.116Z,99.99
2022-10-02T00:18:26.052Z,99.99
2022-10-02T00:19:26.062Z,99.99
2022-10-02T00:20:26.039Z,99.99
2022-10-02T00:21:26.057Z,99.99
2022-10-02T00:22:26.050Z,99.99
2022-10-02T00:23:26.009Z,99.99
2022-10-02T00:24:26.009Z,99.99
2022-10-02T00:25:25.976Z,99.99
2022-10-02T00:26:25.971Z,99.99
2022-10-02T00:27:25.969Z,99.99
2022-10-02T00:28:26.024Z,99.99
2022-10-02T00:29:25.958Z,99.99
2022-10-02T00:30:25.946Z,99.99
2022-10-02T00:31:25.965Z,99.99
2022-10-02T00:32:25.925Z,99.99
2022-10-02T00:33:25.919Z,99.99
2022-10-02T00:34:25.929Z,99.99
2022-10-02T00:35:25.902Z,99.99
2022-10-02T00:36:25.900Z,99.99
2022-10-02T00:37:25.891Z,99.99
2022-10-02T00:38:25.876Z,99.99
2022-10-02T00:39:25.898Z,99.99
2022-10-02T00:40:25.868Z,99.99
2022-10-02T00:41:25.853Z,99.99
2022-10-02T00:42:25.847Z,99.99
2022-10-02T00:43:25.836Z,99.99
2022-10-02T00:44:25.839Z,99.99
2022-10-02T00:45:25.877Z,99.99
2022-10-02T00:46:25.810Z,99.99
2022-10-02T00:47:25.810Z,99.99
2022-10-02T00:48:25.795Z,99.99
2022-10-02T00:49:25.790Z,99.99
2022-10-02T00:50:25.777Z,99.99
2022-10-02T00:51:25.795Z,99.99
2022-10-02T00:52:25.751Z,99.99
2022-10-02T00:53:25.752Z,99.99
2022-10-02T00:54:25.734Z,99.99
2022-10-02T00:55:25.743Z,99.99
2022-10-02T00:56:25.726Z,99.99
2022-10-02T00:57:25.743Z,99.99
2022-10-02T00:58:25.712Z,99.99
2022-10-02T00:59:25.729Z,99.99
2022-10-02T01:00:25.702Z,99.99
2022-10-02T01:01:25.737Z,99.99
2022-10-02T01:02:25.732Z,99.99
2022-10-02T01:03:25.675Z,99.99
2022-10-02T01:04:25.662Z,99.99
2022-10-02T01:05:25.673Z,99.99
2022-10-02T01:06:25.651Z,99.99
2022-10-02T01:07:25.647Z,99.99
2022-10-02T01:08:25.634Z,99.99
2022-10-02T01:09:25.620Z,99.99
2022-10-02T01:10:25.701Z,99.99
2022-10-02T01:11:25.609Z,99.99
2022-10-02T01:12:25.590Z,99.99
2022-10-02T01:13:25.592Z,99.99
2022-10-02T01:14:25.585Z,99.99
2022-10-02T01:15:25.572Z,99.99
2022-10-02T01:16:25.633Z,99.99
2022-10-02T01:17:25.556Z,99.99
2022-10-02T01:18:25.550Z,99.99
2022-10-02T01:19:25.556Z,99.99
2022-10-02T01:20:25.575Z,99.99
2022-10-02T01:21:25.523Z,99.99
2022-10-02T01:22:25.532Z,99.99
2022-10-02T01:23:25.503Z,99.99
2022-10-02T01:24:25.520Z,99.99
2022-10-02T01:25:25.475Z,99.99
2022-10-02T01:26:25.474Z,99.99
2022-10-02T01:27:25.483Z,99.99
2022-10-02T01:28:25.520Z,99.99
2022-10-02T01:29:25.455Z,99.99
2022-10-02T01:30:25.459Z,99.99
2022-10-02T01:31:25.497Z,99.99
2022-10-02T01:32:25.449Z,99.99
2022-10-02T01:33:25.422Z,99.99
2022-10-02T01:34:25.438Z,99.99
2022-10-02T01:35:25.412Z,99.99
2022-10-02T01:36:25.417Z,99.99
2022-10-02T01:37:25.399Z,99.99
2022-10-02T01:38:25.396Z,99.99
2022-10-02T01:39:25.384Z,99.99
2022-10-02T01:40:25.420Z,99.99
2022-10-02T01:41:25.363Z,99.99
2022-10-02T01:42:25.354Z,99.99
2022-10-02T01:43:25.353Z,99.99
2022-10-02T01:44:25.338Z,99.99
2022-10-02T01:45:25.379Z,99.99
2022-10-02T01:46:25.342Z,99.99
2022-10-02T01:47:25.333Z,99.99
2022-10-02T01:48:25.286Z,99.99
2022-10-02T01:49:25.288Z,99.99
2022-10-02T01:50:25.285Z,99.99
2022-10-02T01:51:25.290Z,99.99
2022-10-02T01:52:25.275Z,99.99
2022-10-02T01:53:25.292Z,99.99
2022-10-02T01:54:25.282Z,99.99
2022-10-02T01:55:25.246Z,99.99
2022-10-02T01:56:25.267Z,99.99
2022-10-02T01:57:25.249Z,99.99
2022-10-02T01:58:25.236Z,99.99
2022-10-02T01:59:25.208Z,99.99
2022-10-02T02:00:25.201Z,99.99
2022-10-02T02:01:25.332Z,99.99
2022-10-02T02:02:25.269Z,99.99
2022-10-02T02:03:25.175Z,99.99
2022-10-02T02:04:25.182Z,99.99
2022-10-02T02:05:25.157Z,99.99
2022-10-02T02:06:25.149Z,99.99
2022-10-02T02:07:25.139Z,99.99
2022-10-02T02:08:25.210Z,99.99
2022-10-02T02:09:25.119Z,99.99
2022-10-02T02:10:25.123Z,99.99
2022-10-02T02:11:25.114Z,99.99
2022-10-02T02:12:25.110Z,99.99
2022-10-02T02:13:25.100Z,99.99
2022-10-02T02:14:25.105Z,99.99
2022-10-02T02:15:25.098Z,99.99
2022-10-02T02:16:25.140Z,99.99
2022-10-02T02:17:25.072Z,99.99
2022-10-02T02:18:25.044Z,99.99
2022-10-02T02:19:25.056Z,99.99
2022-10-02T02:20:25.018Z,99.99
2022-10-02T02:21:25.020Z,99.99
2022-10-02T02:22:25.026Z,99.99
2022-10-02T02:23:25.023Z,99.99
2022-10-02T02:24:25.020Z,99.99
2022-10-02T02:25:25.022Z,99.99
2022-10-02T02:26:24.985Z,99.99
2022-10-02T02:27:24.978Z,99.99
2022-10-02T02:28:25.100Z,99.99
2022-10-02T02:29:24.972Z,99.99
2022-10-02T02:30:34.258Z,99.99
2022-10-02T02:31:24.999Z,99.99
2022-10-02T02:32:24.955Z,99.99
2022-10-02T02:33:24.928Z,99.99
2022-10-02T02:34:24.913Z,99.99
2022-10-02T02:35:24.909Z,99.99
2022-10-02T02:36:24.915Z,99.99
2022-10-02T02:37:24.897Z,99.99
2022-10-02T02:38:24.880Z,99.99
2022-10-02T02:39:24.870Z,99.99
2022-10-02T02:40:24.883Z,99.99
2022-10-02T02:41:24.859Z,99.99
2022-10-02T02:42:26.260Z,99.99
2022-10-02T02:43:24.870Z,99.99
2022-10-02T02:44:24.821Z,99.99
2022-10-02T02:45:24.911Z,99.99
2022-10-02T02:46:24.819Z,99.99
2022-10-02T02:47:24.806Z,99.99
2022-10-02T02:48:24.843Z,99.99
2022-10-02T02:49:24.787Z,99.99
2022-10-02T02:50:24.777Z,99.99
2022-10-02T02:51:24.775Z,99.99
2022-10-02T02:52:24.775Z,99.99
2022-10-02T02:53:24.756Z,99.99
2022-10-02T02:54:24.762Z,99.99
2022-10-02T02:55:24.737Z,99.99
2022-10-02T02:56:24.718Z,99.99
2022-10-02T02:57:24.716Z,99.99
2022-10-02T02:58:24.724Z,99.99
2022-10-02T02:59:24.714Z,99.99
2022-10-02T03:00:24.718Z,99.99
2022-10-02T03:01:24.779Z,99.99
2022-10-02T03:02:24.881Z,99.99
2022-10-02T03:03:24.684Z,99.99
2022-10-02T03:04:24.666Z,99.99
2022-10-02T03:05:24.666Z,99.99
2022-10-02T03:06:24.676Z,99.99
2022-10-02T03:07:24.644Z,99.99
2022-10-02T03:08:24.649Z,99.99
2022-10-02T03:09:24.619Z,99.99
2022-10-02T03:10:24.628Z,99.99
2022-10-02T03:11:24.620Z,99.99
2022-10-02T03:12:24.598Z,99.99
2022-10-02T03:13:24.590Z,99.99
2022-10-02T03:14:24.578Z,99.99
2022-10-02T03:15:24.579Z,99.99
2022-10-02T03:16:24.588Z,99.99
2022-10-02T03:17:24.587Z,99.99
2022-10-02T03:18:24.550Z,99.99
2022-10-02T03:19:24.542Z,99.99
2022-10-02T03:20:24.552Z,99.99
2022-10-02T03:21:24.522Z,99.99
2022-10-02T03:22:24.549Z,99.99
2022-10-02T03:23:24.506Z,99.99
2022-10-02T03:24:24.504Z,99.99
2022-10-02T03:25:24.486Z,99.99
2022-10-02T03:26:24.476Z,99.99
2022-10-02T03:27:24.492Z,99.99
2022-10-02T03:28:50.574Z,99.99
2022-10-02T03:29:25.483Z,99.99
2022-10-02T03:30:24.465Z,99.99
2022-10-02T03:31:24.520Z,99.99
2022-10-02T03:32:24.425Z,99.99
2022-10-02T03:33:24.424Z,99.99
2022-10-02T03:34:24.421Z,99.99
2022-10-02T03:35:24.442Z,99.99
2022-10-02T03:36:24.411Z,99.99
2022-10-02T03:37:24.443Z,99.99
2022-10-02T03:38:24.393Z,99.99
2022-10-02T03:39:25.973Z,99.99
2022-10-02T03:40:24.369Z,99.99
2022-10-02T03:41:24.352Z,99.99
2022-10-02T03:42:24.348Z,99.99
2022-10-02T03:43:24.351Z,99.99
2022-10-02T03:44:24.327Z,99.99
2022-10-02T03:45:49.578Z,99.99
2022-10-02T03:46:25.344Z,99.99
2022-10-02T03:47:24.325Z,99.99
2022-10-02T03:48:24.296Z,99.99
2022-10-02T03:49:24.315Z,99.99
2022-10-02T03:50:24.286Z,99.99
2022-10-02T03:51:24.278Z,99.99
2022-10-02T03:52:24.269Z,99.99
2022-10-02T03:53:24.246Z,99.99
2022-10-02T03:54:24.268Z,99.99
2022-10-02T03:55:24.237Z,99.99
2022-10-02T03:56:24.229Z,99.99
2022-10-02T03:57:24.225Z,99.99
2022-10-02T03:58:24.249Z,99.99
2022-10-02T03:59:24.210Z,99.99
2022-10-02T04:00:24.217Z,99.99
2022-10-02T04:01:24.212Z,99.99
2022-10-02T04:02:24.191Z,99.99
2022-10-02T04:03:24.230Z,99.99
2022-10-02T04:04:24.172Z,99.99
2022-10-02T04:05:24.169Z,99.99
2022-10-02T04:06:24.184Z,99.99
2022-10-02T04:07:24.140Z,99.99
2022-10-02T04:08:24.139Z,99.99
2022-10-02T04:09:24.121Z,99.99
2022-10-02T04:10:24.114Z,99.99
2022-10-02T04:11:24.110Z,99.99
2022-10-02T04:12:24.165Z,99.99
2022-10-02T04:13:24.078Z,99.99
2022-10-02T04:14:24.081Z,99.99
2022-10-02T04:15:24.081Z,99.99
2022-10-02T04:16:24.085Z,99.99
2022-10-02T04:17:24.052Z,99.99
2022-10-02T04:18:24.081Z,99.99
2022-10-02T04:19:24.035Z,99.99
2022-10-02T04:20:24.019Z,99.99
2022-10-02T04:21:24.018Z,99.99
2022-10-02T04:22:24.013Z,99.99
2022-10-02T04:23:23.997Z,99.99
2022-10-02T04:24:24.023Z,99.99
2022-10-02T04:25:24.006Z,99.99
2022-10-02T04:26:23.971Z,99.99
2022-10-02T04:27:23.968Z,99.99
2022-10-02T04:28:23.991Z,99.99
2022-10-02T04:29:23.954Z,99.99
2022-10-02T04:30:23.974Z,99.99
2022-10-02T04:31:23.992Z,99.99
2022-10-02T04:32:23.922Z,99.99
2022-10-02T04:33:23.920Z,99.99
2022-10-02T04:34:23.916Z,99.99
2022-10-02T04:35:23.934Z,99.99
2022-10-02T04:36:23.891Z,99.99
2022-10-02T04:37:23.883Z,99.99
2022-10-02T04:38:23.890Z,99.99
2022-10-02T04:39:23.870Z,99.99
2022-10-02T04:40:23.897Z,99.99
2022-10-02T04:41:23.844Z,99.99
2022-10-02T04:42:23.837Z,99.99
2022-10-02T04:43:23.819Z,99.99
2022-10-02T04:44:23.869Z,99.99
2022-10-02T04:45:23.845Z,99.99
2022-10-02T04:46:23.813Z,99.99
2022-10-02T04:47:23.805Z,99.99
2022-10-02T04:48:23.798Z,99.99
2022-10-02T04:49:23.784Z,99.99
2022-10-02T04:50:23.778Z,99.99
2022-10-02T04:51:23.792Z,99.99
2022-10-02T04:52:23.766Z,99.99
2022-10-02T04:53:23.748Z,99.99
2022-10-02T04:54:23.729Z,99.99
2022-10-02T04:55:23.736Z,99.99
2022-10-02T04:56:23.718Z,99.99
2022-10-02T04:57:23.736Z,99.99
2022-10-02T04:58:23.700Z,99.99
2022-10-02T04:59:23.705Z,99.99
2022-10-02T05:00:23.688Z,99.99
2022-10-02T05:01:23.710Z,99.99
2022-10-02T05:02:23.720Z,99.99
2022-10-02T05:03:23.680Z,99.99
2022-10-02T05:04:23.654Z,99.99
2022-10-02T05:05:23.651Z,99.99
2022-10-02T05:06:23.647Z,99.99
2022-10-02T05:07:23.682Z,99.99
2022-10-02T05:08:23.612Z,99.99
2022-10-02T05:09:27.120Z,99.99
2022-10-02T05:10:23.593Z,99.99
2022-10-02T05:11:23.590Z,99.99
2022-10-02T05:12:23.585Z,99.99
2022-10-02T05:13:23.580Z,99.99
2022-10-02T05:14:23.589Z,99.99
2022-10-02T05:15:23.551Z,99.99
2022-10-02T05:16:23.592Z,99.99
2022-10-02T05:17:23.541Z,99.99
2022-10-02T05:18:23.558Z,99.99
2022-10-02T05:19:23.530Z,99.99
2022-10-02T05:20:23.519Z,99.99
2022-10-02T05:21:23.515Z,99.99
2022-10-02T05:22:23.502Z,99.99
2022-10-02T05:23:23.488Z,99.99
2022-10-02T05:24:23.500Z,99.99
2022-10-02T05:25:23.466Z,99.99
2022-10-02T05:26:23.472Z,99.99
2022-10-02T05:27:23.453Z,99.99
2022-10-02T05:28:23.542Z,99.99
2022-10-02T05:29:23.433Z,99.99
2022-10-02T05:30:23.447Z,99.99
2022-10-02T05:31:23.499Z,99.99
2022-10-02T05:32:23.416Z,99.99
2022-10-02T05:33:23.413Z,99.99
2022-10-02T05:34:23.407Z,99.99
2022-10-02T05:35:23.397Z,99.99
2022-10-02T05:36:23.419Z,99.99
2022-10-02T05:37:23.378Z,99.99
2022-10-02T05:38:23.374Z,99.99
2022-10-02T05:39:23.347Z,99.99
2022-10-02T05:40:23.351Z,99.99
2022-10-02T05:41:23.331Z,99.99
2022-10-02T05:42:23.377Z,99.99
2022-10-02T05:43:23.324Z,99.99
2022-10-02T05:44:23.318Z,99.99
2022-10-02T05:45:23.313Z,99.99
2022-10-02T05:46:23.333Z,99.99
2022-10-02T05:47:23.291Z,99.99
2022-10-02T05:48:23.300Z,99.99
2022-10-02T05:49:23.261Z,99.99
2022-10-02T05:50:23.266Z,99.99
2022-10-02T05:51:23.249Z,99.99
2022-10-02T05:52:23.241Z,99.99
2022-10-02T05:53:23.230Z,99.99
2022-10-02T05:54:23.254Z,99.99
2022-10-02T05:55:23.223Z,99.99
2022-10-02T05:56:23.259Z,99.99
2022-10-02T05:57:23.207Z,99.99
2022-10-02T05:58:23.189Z,99.99
2022-10-02T05:59:23.195Z,99.99
2022-10-02T06:00:23.215Z,99.99
2022-10-02T06:01:23.214Z,99.99
2022-10-02T06:02:23.202Z,99.99
2022-10-02T06:03:23.155Z,99.99
2022-10-02T06:04:23.147Z,99.99
2022-10-02T06:05:23.131Z,99.99
2022-10-02T06:06:23.162Z,99.99
2022-10-02T06:07:23.116Z,99.99
2022-10-02T06:08:23.117Z,99.99
2022-10-02T06:09:23.100Z,99.99
2022-10-02T06:10:23.092Z,99.99
2022-10-02T06:11:23.117Z,99.99
2022-10-02T06:12:23.094Z,99.99
2022-10-02T06:13:23.104Z,99.99
2022-10-02T06:14:23.073Z,99.99
2022-10-02T06:15:23.067Z,99.99
2022-10-02T06:16:23.225Z,99.99
2022-10-02T06:17:23.053Z,99.99
2022-10-02T06:18:23.100Z,99.99
2022-10-02T06:19:23.023Z,99.99
2022-10-02T06:20:23.028Z,99.99
2022-10-02T06:21:23.066Z,99.99
2022-10-02T06:22:23.002Z,99.99
2022-10-02T06:23:23.000Z,99.99
2022-10-02T06:24:23.009Z,99.99
2022-10-02T06:25:22.971Z,99.99
2022-10-02T06:26:22.974Z,99.99
2022-10-02T06:27:22.997Z,99.99
2022-10-02T06:28:23.017Z,99.99
2022-10-02T06:29:27.073Z,99.99
2022-10-02T06:30:22.951Z,99.99
2022-10-02T06:31:23.014Z,99.99
2022-10-02T06:32:22.959Z,99.99
2022-10-02T06:33:22.914Z,99.99
2022-10-02T06:34:22.991Z,99.99
2022-10-02T06:35:22.890Z,99.99
2022-10-02T06:36:22.891Z,99.99
2022-10-02T06:37:22.928Z,99.99
2022-10-02T06:38:22.895Z,99.99
2022-10-02T06:39:22.871Z,99.99
2022-10-02T06:40:22.879Z,99.99
2022-10-02T06:41:22.850Z,99.99
2022-10-02T06:42:22.834Z,99.99
2022-10-02T06:43:22.833Z,99.99
2022-10-02T06:44:22.843Z,99.99
2022-10-02T06:45:22.849Z,99.99
2022-10-02T06:46:22.818Z,99.99
2022-10-02T06:47:22.806Z,99.99
2022-10-02T06:48:22.792Z,99.99
2022-10-02T06:49:22.809Z,99.99
2022-10-02T06:50:22.783Z,99.99
2022-10-02T06:51:22.782Z,99.99
2022-10-02T06:52:22.772Z,99.99
2022-10-02T06:53:22.753Z,99.99
2022-10-02T06:54:22.769Z,99.99
2022-10-02T06:55:22.761Z,99.99
2022-10-02T06:56:22.735Z,99.99
2022-10-02T06:57:22.741Z,99.99
2022-10-02T06:58:22.718Z,99.99
2022-10-02T06:59:22.703Z,99.99
2022-10-02T07:00:22.717Z,99.99
2022-10-02T07:01:22.765Z,99.99
2022-10-02T07:02:22.736Z,99.99
2022-10-02T07:03:22.675Z,99.99
2022-10-02T07:04:22.676Z,99.99
2022-10-02T07:05:22.653Z,99.99
2022-10-02T07:06:22.678Z,99.99
2022-10-02T07:07:22.656Z,99.99
2022-10-02T07:08:22.636Z,99.99
2022-10-02T07:09:22.634Z,99.99
2022-10-02T07:10:22.721Z,99.99
2022-10-02T07:11:22.610Z,99.99
2022-10-02T07:12:22.636Z,99.99
2022-10-02T07:13:22.615Z,99.99
2022-10-02T07:14:22.588Z,99.99
2022-10-02T07:15:22.579Z,99.99
2022-10-02T07:16:22.591Z,99.99
2022-10-02T07:17:22.620Z,99.99
2022-10-02T07:18:22.566Z,99.99
2022-10-02T07:19:22.545Z,99.99
2022-10-02T07:20:22.653Z,99.99
2022-10-02T07:21:22.517Z,99.99
2022-10-02T07:22:43.458Z,99.99
2022-10-02T07:23:23.529Z,99.99
2022-10-02T07:24:22.509Z,99.99
2022-10-02T07:25:22.507Z,99.99
2022-10-02T07:26:22.490Z,99.99
2022-10-02T07:27:22.484Z,99.99
2022-10-02T07:28:22.522Z,99.99
2022-10-02T07:29:22.522Z,99.99
2022-10-02T07:30:22.520Z,99.99
2022-10-02T07:31:22.477Z,99.99
2022-10-02T07:32:22.524Z,99.99
2022-10-02T07:33:25.431Z,99.99
2022-10-02T07:34:23.448Z,99.99
2022-10-02T07:35:22.408Z,99.99
2022-10-02T07:36:22.402Z,99.99
2022-10-02T07:37:22.476Z,99.99
2022-10-02T07:38:22.386Z,99.99
2022-10-02T07:39:22.375Z,99.99
2022-10-02T07:40:22.442Z,99.99
2022-10-02T07:41:22.359Z,99.99
2022-10-02T07:42:22.355Z,99.99
2022-10-02T07:43:22.367Z,99.99
2022-10-02T07:44:22.346Z,99.99
2022-10-02T07:45:22.544Z,99.99
2022-10-02T07:46:22.345Z,99.99
2022-10-02T07:47:22.321Z,99.99
2022-10-02T07:48:22.302Z,99.99
2022-10-02T07:49:22.318Z,99.99
2022-10-02T07:50:22.287Z,99.99
2022-10-02T07:51:22.282Z,99.99
2022-10-02T07:52:22.277Z,99.99
2022-10-02T07:53:22.267Z,99.99
2022-10-02T07:54:22.268Z,99.99
2022-10-02T07:55:22.267Z,99.99
2022-10-02T07:56:22.228Z,99.99
2022-10-02T07:57:22.239Z,99.99
2022-10-02T07:58:22.233Z,99.99
2022-10-02T07:59:22.233Z,99.99
2022-10-02T08:00:22.207Z,99.99
2022-10-02T08:01:22.235Z,99.99
2022-10-02T08:02:22.589Z,99.99
2022-10-02T08:03:22.255Z,99.99
2022-10-02T08:04:22.182Z,99.99
2022-10-02T08:05:22.183Z,99.99
2022-10-02T08:06:22.280Z,99.99
2022-10-02T08:07:22.433Z,99.99
2022-10-02T08:08:22.283Z,99.99
2022-10-02T08:09:22.190Z,99.99
2022-10-02T08:10:22.117Z,99.99
2022-10-02T08:11:22.165Z,99.99
2022-10-02T08:12:22.158Z,99.07
2022-10-02T08:13:22.200Z,98.92
2022-10-02T08:14:22.082Z,98.47
2022-10-02T08:15:22.103Z,96.95
2022-10-02T08:16:22.165Z,96.90
2022-10-02T08:17:22.065Z,94.73
2022-10-02T08:18:34.124Z,95.54
2022-10-02T08:19:23.191Z,95.70
2022-10-02T08:20:23.799Z,94.94
2022-10-02T08:21:22.026Z,92.83
2022-10-02T08:22:23.329Z,90.31
2022-10-02T08:23:23.492Z,87.19
2022-10-02T08:24:23.677Z,87.24
2022-10-02T08:25:22.013Z,88.01
2022-10-02T08:26:22.027Z,88.04
2022-10-02T08:27:21.999Z,88.15
2022-10-02T08:28:22.005Z,88.19
2022-10-02T08:29:21.976Z,90.45
2022-10-02T08:30:22.039Z,90.25
2022-10-02T08:31:21.990Z,89.48
2022-10-02T08:32:21.960Z,90.84
2022-10-02T08:33:21.954Z,91.30
2022-10-02T08:34:29.441Z,92.71
2022-10-02T08:35:22.003Z,92.45
2022-10-02T08:36:21.940Z,94.78
2022-10-02T08:37:21.922Z,94.53
2022-10-02T08:38:21.895Z,94.26
2022-10-02T08:39:21.890Z,94.82
2022-10-02T08:40:21.883Z,94.41
2022-10-02T08:41:21.902Z,94.82
2022-10-02T08:42:21.923Z,95.78
2022-10-02T08:43:21.855Z,96.08
2022-10-02T08:44:21.853Z,96.89
2022-10-02T08:45:21.839Z,96.69
2022-10-02T08:46:22.365Z,97.09
2022-10-02T08:47:21.844Z,97.04
2022-10-02T08:48:23.301Z,97.04
2022-10-02T08:49:21.835Z,97.09
2022-10-02T08:50:21.802Z,97.20
2022-10-02T08:51:21.812Z,96.59
2022-10-02T08:52:21.802Z,98.52
2022-10-02T08:53:21.795Z,97.96
2022-10-02T08:54:21.763Z,97.40
2022-10-02T08:55:21.791Z,98.01
2022-10-02T08:56:21.760Z,98.11
2022-10-02T08:57:21.742Z,96.69
2022-10-02T08:58:21.728Z,96.79
2022-10-02T08:59:21.754Z,96.59
2022-10-02T09:00:21.732Z,96.79
2022-10-02T09:01:21.850Z,97.65
2022-10-02T09:02:21.726Z,97.85
2022-10-02T09:03:21.686Z,98.01
2022-10-02T09:04:21.700Z,97.91
2022-10-02T09:05:21.867Z,96.84
2022-10-02T09:06:21.667Z,96.34
2022-10-02T09:07:24.850Z,97.00
2022-10-02T09:08:22.648Z,95.89
2022-10-02T09:09:21.640Z,96.39
2022-10-02T09:10:21.661Z,96.30
2022-10-02T09:11:21.669Z,96.75
2022-10-02T09:12:21.609Z,96.25
2022-10-02T09:13:21.670Z,96.60
2022-10-02T09:14:21.603Z,95.68
2022-10-02T09:15:21.598Z,95.28
2022-10-02T09:16:21.671Z,94.77
2022-10-02T09:17:21.599Z,96.19
2022-10-02T09:18:22.370Z,96.96
2022-10-02T09:19:21.558Z,95.28
2022-10-02T09:20:21.549Z,95.18
2022-10-02T09:21:21.627Z,95.38
2022-10-02T09:22:21.544Z,96.90
2022-10-02T09:23:21.553Z,97.00
2022-10-02T09:24:21.514Z,97.11
2022-10-02T09:25:21.520Z,96.39
2022-10-02T09:26:21.508Z,96.60
2022-10-02T09:27:21.598Z,98.02
2022-10-02T09:28:21.586Z,96.45
2022-10-02T09:29:21.480Z,96.15
2022-10-02T09:30:21.844Z,97.06
2022-10-02T09:31:21.724Z,96.55
2022-10-02T09:32:21.634Z,96.25
2022-10-02T09:33:21.642Z,96.96
2022-10-02T09:34:21.700Z,95.84
2022-10-02T09:35:21.435Z,96.15
2022-10-02T09:36:22.359Z,95.13
2022-10-02T09:37:21.415Z,95.13
2022-10-02T09:38:21.429Z,94.93
2022-10-02T09:39:21.450Z,95.79
2022-10-02T09:40:21.393Z,95.38
2022-10-02T09:41:21.567Z,95.99
2022-10-02T09:42:22.375Z,96.55
2022-10-02T09:43:21.369Z,96.70
2022-10-02T09:44:21.388Z,96.09
2022-10-02T09:45:21.367Z,95.58
2022-10-02T09:46:21.371Z,95.38
2022-10-02T09:47:21.372Z,96.09
2022-10-02T09:48:21.358Z,95.79
2022-10-02T09:49:22.451Z,95.68
2022-10-02T09:50:21.322Z,95.79
2022-10-02T09:51:21.303Z,96.25
2022-10-02T09:52:21.670Z,96.04
2022-10-02T09:53:21.291Z,95.23
2022-10-02T09:54:21.278Z,95.03
2022-10-02T09:55:22.217Z,95.54
2022-10-02T09:56:21.391Z,95.38
2022-10-02T09:57:21.266Z,95.23
2022-10-02T09:58:21.717Z,95.23
2022-10-02T09:59:21.235Z,95.03
2022-10-02T10:00:21.246Z,95.54
2022-10-02T10:01:21.287Z,94.62
2022-10-02T10:02:25.434Z,94.32
2022-10-02T10:03:21.198Z,94.73
2022-10-02T10:04:21.900Z,94.48
2022-10-02T10:05:21.880Z,93.51
2022-10-02T10:06:21.193Z,93.77
2022-10-02T10:07:21.189Z,94.89
2022-10-02T10:08:21.157Z,93.73
2022-10-02T10:09:21.173Z,93.67
2022-10-02T10:10:21.154Z,92.65
2022-10-02T10:11:21.175Z,92.25
2022-10-02T10:12:21.165Z,93.21
2022-10-02T10:13:21.122Z,93.37
2022-10-02T10:14:21.136Z,92.14
2022-10-02T10:15:21.091Z,92.45
2022-10-02T10:16:21.094Z,92.65
2022-10-02T10:17:21.103Z,92.25
2022-10-02T10:18:21.084Z,92.14
2022-10-02T10:19:21.060Z,92.96
2022-10-02T10:20:21.046Z,93.26
2022-10-02T10:21:21.043Z,93.37
2022-10-02T10:22:21.053Z,94.27
2022-10-02T10:23:21.023Z,94.07
2022-10-02T10:24:21.018Z,93.77
2022-10-02T10:25:21.004Z,92.96
2022-10-02T10:26:21.009Z,92.55
2022-10-02T10:27:21.024Z,93.16
2022-10-02T10:28:21.032Z,91.94
2022-10-02T10:29:20.977Z,92.96
2022-10-02T10:30:20.969Z,93.77
2022-10-02T10:31:21.003Z,94.38
2022-10-02T10:32:20.942Z,93.37
2022-10-02T10:33:20.948Z,93.26
2022-10-02T10:34:20.946Z,93.52
2022-10-02T10:35:20.953Z,92.71
2022-10-02T10:36:20.903Z,93.73
2022-10-02T10:37:20.902Z,93.12
2022-10-02T10:38:20.893Z,92.67
2022-10-02T10:39:20.927Z,92.16
2022-10-02T10:40:20.871Z,92.06
2022-10-02T10:41:20.872Z,90.89
2022-10-02T10:42:20.913Z,92.21
2022-10-02T10:43:20.875Z,91.50
2022-10-02T10:44:20.893Z,92.00
2022-10-02T10:45:20.862Z,92.35
2022-10-02T10:46:20.865Z,92.00
2022-10-02T10:47:20.948Z,92.31
2022-10-02T10:48:20.840Z,92.21
2022-10-02T10:49:20.809Z,92.00
2022-10-02T10:50:21.414Z,91.05
2022-10-02T10:51:20.776Z,90.20
2022-10-02T10:52:20.835Z,90.30
2022-10-02T10:53:20.770Z,89.75
2022-10-02T10:54:20.759Z,87.42
2022-10-02T10:55:20.771Z,88.90
2022-10-02T10:56:20.733Z,88.45
2022-10-02T10:57:20.721Z,88.59
2022-10-02T10:58:20.718Z,88.79
2022-10-02T10:59:25.002Z,88.75
2022-10-02T11:00:20.827Z,88.55
2022-10-02T11:01:20.753Z,87.64
2022-10-02T11:02:20.748Z,88.41
2022-10-02T11:03:20.709Z,87.44
2022-10-02T11:04:20.663Z,87.50
2022-10-02T11:05:20.674Z,88.10
2022-10-02T11:06:20.639Z,87.24
2022-10-02T11:07:20.642Z,86.67
2022-10-02T11:08:21.089Z,88.59
2022-10-02T11:09:20.622Z,88.45
2022-10-02T11:10:20.605Z,87.64
2022-10-02T11:11:20.616Z,88.15
2022-10-02T11:12:20.581Z,88.31
2022-10-02T11:13:20.571Z,88.31
2022-10-02T11:14:20.569Z,87.60
2022-10-02T11:15:20.565Z,87.30
2022-10-02T11:16:20.573Z,87.13
2022-10-02T11:17:20.555Z,87.64
2022-10-02T11:18:20.531Z,87.54
2022-10-02T11:19:21.681Z,87.24
2022-10-02T11:20:20.520Z,87.34
2022-10-02T11:21:20.526Z,88.09
2022-10-02T11:22:20.532Z,87.18
2022-10-02T11:23:21.406Z,88.39
2022-10-02T11:24:20.495Z,88.53
2022-10-02T11:25:20.561Z,88.53
2022-10-02T11:26:20.483Z,88.88
2022-10-02T11:27:20.456Z,88.64
2022-10-02T11:28:20.660Z,88.48
2022-10-02T11:29:20.424Z,88.94
2022-10-02T11:30:20.658Z,90.25
2022-10-02T11:31:20.466Z,90.36
2022-10-02T11:32:20.422Z,89.14
2022-10-02T11:33:20.403Z,89.30
2022-10-02T11:34:20.385Z,88.43
2022-10-02T11:35:20.385Z,87.73
2022-10-02T11:36:20.491Z,88.74
2022-10-02T11:37:20.389Z,89.00
2022-10-02T11:38:20.368Z,88.70
2022-10-02T11:39:20.356Z,88.59
2022-10-02T11:40:20.346Z,87.88
2022-10-02T11:41:20.320Z,88.19
2022-10-02T11:42:20.337Z,87.68
2022-10-02T11:43:20.345Z,87.18
2022-10-02T11:44:20.299Z,88.29
2022-10-02T11:45:20.295Z,88.55
2022-10-02T11:46:20.354Z,87.64
2022-10-02T11:47:20.306Z,87.44
2022-10-02T11:48:20.278Z,88.75
2022-10-02T11:49:20.297Z,87.24
2022-10-02T11:50:20.246Z,87.90
2022-10-02T11:51:20.241Z,87.50
2022-10-02T11:52:20.226Z,86.13
2022-10-02T11:53:20.221Z,86.43
2022-10-02T11:54:20.211Z,87.38
2022-10-02T11:55:20.237Z,88.39
2022-10-02T11:56:20.207Z,88.59
2022-10-02T11:57:20.190Z,86.47
2022-10-02T11:58:20.182Z,86.71
2022-10-02T11:59:20.165Z,86.96
2022-10-02T12:00:20.164Z,88.07
2022-10-02T12:01:20.172Z,88.33
2022-10-02T12:02:20.280Z,88.37
2022-10-02T12:03:20.214Z,88.74
2022-10-02T12:04:20.132Z,88.13
2022-10-02T12:05:20.126Z,88.13
2022-10-02T12:06:20.112Z,88.64
2022-10-02T12:07:20.100Z,88.33
2022-10-02T12:08:20.098Z,88.53
2022-10-02T12:09:20.110Z,88.74
2022-10-02T12:10:20.080Z,88.33
2022-10-02T12:11:21.102Z,88.74
2022-10-02T12:12:21.786Z,89.18
2022-10-02T12:13:20.061Z,88.53
2022-10-02T12:14:20.033Z,88.74
2022-10-02T12:15:22.525Z,88.64
2022-10-02T12:16:20.083Z,88.39
2022-10-02T12:17:20.009Z,87.18
2022-10-02T12:18:21.949Z,87.58
2022-10-02T12:19:20.000Z,87.44
2022-10-02T12:20:19.980Z,87.44
2022-10-02T12:21:19.999Z,87.54
2022-10-02T12:22:19.992Z,87.44
2022-10-02T12:23:19.959Z,85.42
2022-10-02T12:24:19.972Z,86.27
2022-10-02T12:25:19.940Z,86.27
2022-10-02T12:26:20.020Z,85.56
2022-10-02T12:27:19.924Z,85.60
2022-10-02T12:28:19.971Z,86.51
2022-10-02T12:29:19.912Z,85.46
2022-10-02T12:30:19.901Z,85.62
2022-10-02T12:31:19.921Z,84.81
2022-10-02T12:32:19.893Z,83.50
2022-10-02T12:33:19.886Z,83.26
2022-10-02T12:34:19.869Z,83.48
2022-10-02T12:35:19.860Z,81.22
2022-10-02T12:36:19.844Z,79.69
2022-10-02T12:37:19.870Z,76.90
2022-10-02T12:38:19.825Z,74.52
2022-10-02T12:39:22.087Z,72.44
2022-10-02T12:40:19.810Z,70.83
2022-10-02T12:41:19.829Z,69.06
2022-10-02T12:42:19.790Z,70.03
2022-10-02T12:43:19.807Z,66.95
2022-10-02T12:44:19.787Z,68.89
2022-10-02T12:45:19.769Z,67.05
2022-10-02T12:46:19.750Z,65.59
2022-10-02T12:47:19.817Z,66.32
2022-10-02T12:48:19.760Z,67.25
2022-10-02T12:49:19.792Z,68.05
2022-10-02T12:50:19.736Z,67.58
2022-10-02T12:51:19.719Z,66.85
2022-10-02T12:52:19.713Z,68.35